createdAt,value
2023-05-25T00:00:33.506Z,0.50
2023-05-25T00:01:33.590Z,0.42
2023-05-25T00:02:33.983Z,0.36
2023-05-25T00:03:34.102Z,0.36
2023-05-25T00:04:34.168Z,0.39
2023-05-25T00:05:33.952Z,0.40
2023-05-25T00:06:33.755Z,0.44
2023-05-25T00:07:33.922Z,0.48
2023-05-25T00:08:34.069Z,0.50
2023-05-25T00:09:33.794Z,0.50
2023-05-25T00:10:33.797Z,0.50
2023-05-25T00:11:33.960Z,0.50
2023-05-25T00:12:34.125Z,0.51
2023-05-25T00:13:33.960Z,0.52
2023-05-25T00:14:33.872Z,0.52
2023-05-25T00:15:33.973Z,0.56
2023-05-25T00:16:34.209Z,0.51
2023-05-25T00:17:34.113Z,0.50
2023-05-25T00:18:34.629Z,0.50
2023-05-25T00:19:34.179Z,0.51
2023-05-25T00:20:34.403Z,0.50
2023-05-25T00:21:34.178Z,0.53
2023-05-25T00:22:34.430Z,0.52
2023-05-25T00:23:34.520Z,0.52
2023-05-25T00:24:34.431Z,0.51
2023-05-25T00:25:34.531Z,0.50
2023-05-25T00:26:34.563Z,0.50
2023-05-25T00:27:34.665Z,0.50
2023-05-25T00:28:34.779Z,0.49
2023-05-25T00:29:34.726Z,0.51
2023-05-25T00:30:34.745Z,0.53
2023-05-25T00:31:35.379Z,0.59
2023-05-25T00:32:34.973Z,0.63
2023-05-25T00:33:35.235Z,0.64
2023-05-25T00:34:35.181Z,0.64
2023-05-25T00:35:35.190Z,0.68
2023-05-25T00:36:35.458Z,0.68
2023-05-25T00:37:35.451Z,0.69
2023-05-25T00:38:35.705Z,0.70
2023-05-25T00:39:35.557Z,0.65
2023-05-25T00:40:35.521Z,0.63
2023-05-25T00:41:35.581Z,0.63
2023-05-25T00:42:35.996Z,0.65
2023-05-25T00:43:36.007Z,0.65
2023-05-25T00:44:35.803Z,0.68
2023-05-25T00:45:35.785Z,0.68
2023-05-25T00:46:36.017Z,0.66
2023-05-25T00:47:36.004Z,0.64
2023-05-25T00:48:36.040Z,0.66
2023-05-25T00:49:35.949Z,0.69
2023-05-25T00:50:36.160Z,0.62
2023-05-25T00:51:36.111Z,0.58
2023-05-25T00:52:36.139Z,0.58
2023-05-25T00:53:36.331Z,0.55
2023-05-25T00:54:36.108Z,0.50
2023-05-25T00:55:36.292Z,0.50
2023-05-25T00:56:36.448Z,0.54
2023-05-25T00:57:36.257Z,0.57
2023-05-25T00:58:36.718Z,0.61
2023-05-25T00:59:36.221Z,0.60
2023-05-25T01:00:36.353Z,0.59
2023-05-25T01:01:36.438Z,0.61
2023-05-25T01:02:36.487Z,0.63
2023-05-25T01:03:36.609Z,0.61
2023-05-25T01:04:36.561Z,0.66
2023-05-25T01:05:36.563Z,0.68
2023-05-25T01:06:36.619Z,0.65
2023-05-25T01:07:36.680Z,0.63
2023-05-25T01:08:36.848Z,0.61
2023-05-25T01:09:36.941Z,0.57
2023-05-25T01:10:36.897Z,0.57
2023-05-25T01:11:37.204Z,0.56
2023-05-25T01:12:36.962Z,0.53
2023-05-25T01:13:37.154Z,0.55
2023-05-25T01:14:37.129Z,0.55
2023-05-25T01:15:37.571Z,0.53
2023-05-25T01:16:37.614Z,0.55
2023-05-25T01:17:37.678Z,0.54
2023-05-25T01:18:37.577Z,0.52
2023-05-25T01:19:37.432Z,0.55
2023-05-25T01:20:37.448Z,0.53
2023-05-25T01:21:37.547Z,0.51
2023-05-25T01:22:37.656Z,0.50
2023-05-25T01:23:37.646Z,0.51
2023-05-25T01:24:38.374Z,0.50
2023-05-25T01:25:37.569Z,0.51
2023-05-25T01:26:37.691Z,0.51
2023-05-25T01:27:37.732Z,0.51
2023-05-25T01:28:38.129Z,0.51
2023-05-25T01:29:37.748Z,0.54
2023-05-25T01:30:37.577Z,0.50
2023-05-25T01:31:37.864Z,0.51
2023-05-25T01:32:37.895Z,0.50
2023-05-25T01:33:38.136Z,0.54
2023-05-25T01:34:37.871Z,0.60
2023-05-25T01:35:37.985Z,0.61
2023-05-25T01:36:38.203Z,0.97
2023-05-25T01:37:38.187Z,1.57
2023-05-25T01:38:38.061Z,2.08
2023-05-25T01:39:38.732Z,2.49
2023-05-25T01:40:38.511Z,3.19
2023-05-25T01:41:38.321Z,2.71
2023-05-25T01:42:38.839Z,3.24
2023-05-25T01:43:38.461Z,2.68
2023-05-25T01:44:38.801Z,2.20
2023-05-25T01:45:38.793Z,2.60
2023-05-25T01:46:38.922Z,2.90
2023-05-25T01:47:38.713Z,3.58
2023-05-25T01:48:38.785Z,3.85
2023-05-25T01:49:39.237Z,3.71
2023-05-25T01:50:39.156Z,3.23
2023-05-25T01:51:39.311Z,3.38
2023-05-25T01:52:39.229Z,3.06
2023-05-25T01:53:39.069Z,2.60
2023-05-25T01:54:39.263Z,3.09
2023-05-25T01:55:39.340Z,3.67
2023-05-25T01:56:39.413Z,3.30
2023-05-25T01:57:39.391Z,2.83
2023-05-25T01:58:39.405Z,2.56
2023-05-25T01:59:40.317Z,2.40
2023-05-25T02:00:39.584Z,2.35
2023-05-25T02:01:39.944Z,2.27
2023-05-25T02:02:39.845Z,2.07
2023-05-25T02:03:39.521Z,1.89
2023-05-25T02:04:39.510Z,1.77
2023-05-25T02:05:39.765Z,1.58
2023-05-25T02:06:39.786Z,1.50
2023-05-25T02:07:39.622Z,1.48
2023-05-25T02:08:39.830Z,1.47
2023-05-25T02:09:39.926Z,1.31
2023-05-25T02:10:39.745Z,1.15
2023-05-25T02:11:39.907Z,1.16
2023-05-25T02:12:40.118Z,1.11
2023-05-25T02:13:40.082Z,1.18
2023-05-25T02:14:40.159Z,1.14
2023-05-25T02:15:39.943Z,1.08
2023-05-25T02:16:39.961Z,1.10
2023-05-25T02:17:40.141Z,1.08
2023-05-25T02:18:40.221Z,1.16
2023-05-25T02:19:40.551Z,1.15
2023-05-25T02:20:41.230Z,1.14
2023-05-25T02:21:40.800Z,1.27
2023-05-25T02:22:40.639Z,1.21
2023-05-25T02:23:40.909Z,1.14
2023-05-25T02:24:40.716Z,1.14
2023-05-25T02:25:40.554Z,1.15
2023-05-25T02:26:40.724Z,1.11
2023-05-25T02:27:40.875Z,1.07
2023-05-25T02:28:40.882Z,1.01
2023-05-25T02:29:40.712Z,1.00
2023-05-25T02:30:41.425Z,1.05
2023-05-25T02:31:41.339Z,1.02
2023-05-25T02:32:41.260Z,0.94
2023-05-25T02:33:42.201Z,0.97
2023-05-25T02:34:41.962Z,0.97
2023-05-25T02:35:42.204Z,0.93
2023-05-25T02:36:42.466Z,0.84
2023-05-25T02:37:41.288Z,0.82
2023-05-25T02:38:43.396Z,0.82
2023-05-25T02:39:40.911Z,0.81
2023-05-25T02:40:41.746Z,0.82
2023-05-25T02:41:41.416Z,0.86
2023-05-25T02:42:41.575Z,0.93
2023-05-25T02:43:42.196Z,1.16
2023-05-25T02:44:41.829Z,1.19
2023-05-25T02:45:41.715Z,1.20
2023-05-25T02:46:42.244Z,1.14
2023-05-25T02:47:41.662Z,1.18
2023-05-25T02:48:41.791Z,1.11
2023-05-25T02:49:41.654Z,1.11
2023-05-25T02:50:41.643Z,1.21
2023-05-25T02:51:42.451Z,1.17
2023-05-25T02:52:42.055Z,1.11
2023-05-25T02:53:41.840Z,1.14
2023-05-25T02:54:41.952Z,1.12
2023-05-25T02:55:42.265Z,1.12
2023-05-25T02:56:42.100Z,1.15
2023-05-25T02:57:42.594Z,1.19
2023-05-25T02:58:42.299Z,1.03
2023-05-25T02:59:42.129Z,1.00
2023-05-25T03:00:42.355Z,1.04
2023-05-25T03:01:42.461Z,1.05
2023-05-25T03:02:42.202Z,1.17
2023-05-25T03:03:42.475Z,1.08
2023-05-25T03:04:42.478Z,1.17
2023-05-25T03:05:42.426Z,1.10
2023-05-25T03:06:42.220Z,1.09
2023-05-25T03:07:42.827Z,1.04
2023-05-25T03:08:42.592Z,1.14
2023-05-25T03:09:42.757Z,1.14
2023-05-25T03:10:42.613Z,1.05
2023-05-25T03:11:42.926Z,0.97
2023-05-25T03:12:42.728Z,1.00
2023-05-25T03:13:42.968Z,0.99
2023-05-25T03:14:42.929Z,1.06
2023-05-25T03:15:43.411Z,1.04
2023-05-25T03:16:43.143Z,1.07
2023-05-25T03:17:43.037Z,1.07
2023-05-25T03:18:43.313Z,1.10
2023-05-25T03:19:43.134Z,1.16
2023-05-25T03:20:43.435Z,1.15
2023-05-25T03:21:43.502Z,1.13
2023-05-25T03:22:43.251Z,1.10
2023-05-25T03:23:43.215Z,1.13
2023-05-25T03:24:43.569Z,1.11
2023-05-25T03:25:43.706Z,1.11
2023-05-25T03:26:43.656Z,1.15
2023-05-25T03:27:43.600Z,1.11
2023-05-25T03:28:43.660Z,1.13
2023-05-25T03:29:43.708Z,1.09
2023-05-25T03:30:44.042Z,1.05
2023-05-25T03:31:43.957Z,1.16
2023-05-25T03:32:43.711Z,1.18
2023-05-25T03:33:44.094Z,1.19
2023-05-25T03:34:43.925Z,1.12
2023-05-25T03:35:43.960Z,1.12
2023-05-25T03:36:44.626Z,1.20
2023-05-25T03:37:44.173Z,1.19
2023-05-25T03:38:44.684Z,1.21
2023-05-25T03:39:44.389Z,1.12
2023-05-25T03:40:44.211Z,1.11
2023-05-25T03:41:44.894Z,1.18
2023-05-25T03:42:44.602Z,1.15
2023-05-25T03:43:44.961Z,1.16
2023-05-25T03:44:44.660Z,1.07
2023-05-25T03:45:44.763Z,1.09
2023-05-25T03:46:45.394Z,1.14
2023-05-25T03:47:45.158Z,1.14
2023-05-25T03:48:44.759Z,1.12
2023-05-25T03:49:45.224Z,1.12
2023-05-25T03:50:45.155Z,1.10
2023-05-25T03:51:44.819Z,1.09
2023-05-25T03:52:45.191Z,1.07
2023-05-25T03:53:45.180Z,1.09
2023-05-25T03:54:45.071Z,1.11
2023-05-25T03:55:45.483Z,1.09
2023-05-25T03:56:45.992Z,1.11
2023-05-25T03:57:45.279Z,1.15
2023-05-25T03:58:45.311Z,1.12
2023-05-25T03:59:45.346Z,1.12
2023-05-25T04:00:45.940Z,1.17
2023-05-25T04:01:45.645Z,1.13
2023-05-25T04:02:45.551Z,1.24
2023-05-25T04:03:45.764Z,1.37
2023-05-25T04:04:45.682Z,1.45
2023-05-25T04:05:45.962Z,1.39
2023-05-25T04:06:45.671Z,1.26
2023-05-25T04:07:45.949Z,1.28
2023-05-25T04:08:45.742Z,1.36
2023-05-25T04:09:45.879Z,1.30
2023-05-25T04:10:45.910Z,1.11
2023-05-25T04:11:45.952Z,1.07
2023-05-25T04:12:46.007Z,1.08
2023-05-25T04:13:46.073Z,1.08
2023-05-25T04:14:46.094Z,1.18
2023-05-25T04:15:46.379Z,1.68
2023-05-25T04:16:46.371Z,2.10
2023-05-25T04:17:46.260Z,2.34
2023-05-25T04:18:46.329Z,2.35
2023-05-25T04:19:46.336Z,2.38
2023-05-25T04:20:46.397Z,2.44
2023-05-25T04:21:46.457Z,2.43
2023-05-25T04:22:46.482Z,2.34
2023-05-25T04:23:46.576Z,2.50
2023-05-25T04:24:46.772Z,2.57
2023-05-25T04:25:46.863Z,2.36
2023-05-25T04:26:46.784Z,2.25
2023-05-25T04:27:46.770Z,1.83
2023-05-25T04:28:46.807Z,1.49
2023-05-25T04:29:46.855Z,1.59
2023-05-25T04:30:46.946Z,1.68
2023-05-25T04:31:47.416Z,1.79
2023-05-25T04:32:47.364Z,1.52
2023-05-25T04:33:47.069Z,1.28
2023-05-25T04:34:47.065Z,1.17
2023-05-25T04:35:47.135Z,1.06
2023-05-25T04:36:47.115Z,1.02
2023-05-25T04:37:47.172Z,1.00
2023-05-25T04:38:47.167Z,1.10
2023-05-25T04:39:47.217Z,0.92
2023-05-25T04:40:47.268Z,0.72
2023-05-25T04:41:47.259Z,0.67
2023-05-25T04:42:47.398Z,0.56
2023-05-25T04:44:04.775Z,0.60
2023-05-25T04:44:47.357Z,0.60
2023-05-25T04:45:47.871Z,0.61
2023-05-25T04:46:47.572Z,0.62
2023-05-25T04:47:48.507Z,0.58
2023-05-25T04:48:48.480Z,0.37
2023-05-25T04:49:48.226Z,0.34
2023-05-25T04:50:47.573Z,0.34
2023-05-25T04:51:47.713Z,0.44
2023-05-25T04:52:48.506Z,0.63
2023-05-25T04:53:48.994Z,0.88
2023-05-25T04:54:48.054Z,1.17
2023-05-25T04:55:48.429Z,1.18
2023-05-25T04:56:47.713Z,1.31
2023-05-25T04:57:47.549Z,2.08
2023-05-25T04:58:47.930Z,4.24
2023-05-25T04:59:47.529Z,7.84
2023-05-25T05:00:49.708Z,8.60
2023-05-25T05:01:47.782Z,8.62
2023-05-25T05:02:47.716Z,8.82
2023-05-25T05:03:48.592Z,9.60
2023-05-25T05:04:47.627Z,12.96
2023-05-25T05:05:48.111Z,11.49
2023-05-25T05:06:47.948Z,10.94
2023-05-25T05:07:47.913Z,13.48
2023-05-25T05:08:47.774Z,16.84
2023-05-25T05:09:48.228Z,14.02
2023-05-25T05:10:48.027Z,9.64
2023-05-25T05:11:48.710Z,9.44
2023-05-25T05:12:48.083Z,7.78
2023-05-25T05:13:48.405Z,9.07
2023-05-25T05:14:47.949Z,7.84
2023-05-25T05:15:47.989Z,6.81
2023-05-25T05:16:48.387Z,5.41
2023-05-25T05:17:48.000Z,4.02
2023-05-25T05:18:48.487Z,3.41
2023-05-25T05:19:48.301Z,2.93
2023-05-25T05:20:48.388Z,3.64
2023-05-25T05:21:48.279Z,4.28
2023-05-25T05:22:48.353Z,3.80
2023-05-25T05:23:49.033Z,4.16
2023-05-25T05:24:48.817Z,3.33
2023-05-25T05:25:48.969Z,3.21
2023-05-25T05:26:58.249Z,4.52
2023-05-25T05:27:49.317Z,3.70
2023-05-25T05:28:49.778Z,2.62
2023-05-25T05:29:48.974Z,1.84
2023-05-25T05:30:49.505Z,1.66
2023-05-25T05:31:48.802Z,1.59
2023-05-25T05:32:48.745Z,2.03
2023-05-25T05:33:49.547Z,2.82
2023-05-25T05:34:49.260Z,1.79
2023-05-25T05:35:49.644Z,1.93
2023-05-25T05:36:57.358Z,1.87
2023-05-25T05:37:48.921Z,1.78
2023-05-25T05:38:49.372Z,1.64
2023-05-25T05:39:49.125Z,1.69
2023-05-25T05:42:06.971Z,0.50
2023-05-25T05:43:08.116Z,0.50
2023-05-25T05:44:07.966Z,0.50
2023-05-25T05:45:08.011Z,0.50
2023-05-25T05:46:07.794Z,0.50
2023-05-25T05:47:07.732Z,0.59
2023-05-25T05:48:08.032Z,0.82
2023-05-25T05:49:07.980Z,0.82
2023-05-25T05:50:07.715Z,0.66
2023-05-25T05:51:07.657Z,0.48
2023-05-25T05:52:07.672Z,0.38
2023-05-25T05:53:10.381Z,0.34
2023-05-25T05:54:06.997Z,0.34
2023-05-25T05:55:15.048Z,0.34
2023-05-25T05:56:22.719Z,0.34
2023-05-25T05:57:15.098Z,0.34
2023-05-25T05:59:14.970Z,0.34
2023-05-25T06:00:39.782Z,0.34
2023-05-25T06:01:11.321Z,0.34
2023-05-25T06:04:24.128Z,0.34
2023-05-25T06:06:09.254Z,0.34
2023-05-25T06:07:07.861Z,0.34
2023-05-25T06:09:23.411Z,0.34
2023-05-25T06:10:11.028Z,0.34
2023-05-25T06:12:34.209Z,0.50
2023-05-25T06:13:30.796Z,0.50
2023-05-25T06:15:27.572Z,0.50
2023-05-25T06:16:28.140Z,0.50
2023-05-25T06:17:28.571Z,0.50
2023-05-25T06:18:30.689Z,0.50
2023-05-25T06:19:27.480Z,0.50
2023-05-25T06:20:27.515Z,0.50
2023-05-25T06:22:27.443Z,0.50
2023-05-25T06:23:27.454Z,0.50
2023-05-25T06:25:27.461Z,0.50
2023-05-25T06:26:27.430Z,0.50
2023-05-25T06:27:27.387Z,0.50
2023-05-25T06:28:28.821Z,0.50
2023-05-25T06:29:34.790Z,0.50
2023-05-25T06:30:27.892Z,0.50
2023-05-25T06:31:27.433Z,0.50
2023-05-25T06:32:28.444Z,0.50
2023-05-25T06:33:27.368Z,0.50
2023-05-25T06:34:27.891Z,0.50
2023-05-25T06:35:29.388Z,0.50
2023-05-25T06:36:27.582Z,0.58
2023-05-25T06:37:27.366Z,0.65
2023-05-25T06:38:27.357Z,0.68
2023-05-25T06:39:27.385Z,0.65
2023-05-25T06:40:34.756Z,0.50
2023-05-25T06:41:27.846Z,0.47
2023-05-25T06:42:27.310Z,0.42
2023-05-25T06:43:27.438Z,0.35
2023-05-25T06:44:27.402Z,0.34
2023-05-25T06:45:34.707Z,0.34
2023-05-25T06:46:34.686Z,0.34
2023-05-25T06:47:28.271Z,0.34
2023-05-25T06:48:27.255Z,0.34
2023-05-25T06:49:27.384Z,0.34
2023-05-25T06:50:28.159Z,0.34
2023-05-25T06:51:27.125Z,0.34
2023-05-25T06:52:34.522Z,0.34
2023-05-25T06:53:34.526Z,0.34
2023-05-25T06:54:27.397Z,0.34
2023-05-25T06:55:34.444Z,0.34
2023-05-25T06:56:26.991Z,0.34
2023-05-25T06:57:26.946Z,0.34
2023-05-25T06:58:26.937Z,0.34
2023-05-25T06:59:26.901Z,0.34
2023-05-25T07:00:27.042Z,0.34
2023-05-25T07:01:26.889Z,0.34
2023-05-25T07:02:26.866Z,0.34
2023-05-25T07:03:26.763Z,0.34
2023-05-25T07:04:26.896Z,0.34
2023-05-25T07:05:26.757Z,0.34
2023-05-25T07:06:26.651Z,0.34
2023-05-25T07:07:26.620Z,0.34
2023-05-25T07:08:26.597Z,0.34
2023-05-25T07:09:26.569Z,0.34
2023-05-25T07:10:26.621Z,0.34
2023-05-25T07:11:26.506Z,0.34
2023-05-25T07:12:26.527Z,0.34
2023-05-25T07:13:26.429Z,0.34
2023-05-25T07:14:26.400Z,0.34
2023-05-25T07:15:26.362Z,0.34
2023-05-25T07:16:26.431Z,0.38
2023-05-25T07:17:26.346Z,0.34
2023-05-25T07:18:26.255Z,0.38
2023-05-25T07:19:26.190Z,0.53
2023-05-25T07:20:26.430Z,0.68
2023-05-25T07:21:27.091Z,1.09
2023-05-25T07:22:26.049Z,0.69
2023-05-25T07:23:41.611Z,0.50
2023-05-25T07:24:25.941Z,0.34
2023-05-25T07:25:25.927Z,0.34
2023-05-25T07:26:25.826Z,0.34
2023-05-25T07:27:25.784Z,0.34
2023-05-25T07:28:28.966Z,0.34
2023-05-25T07:29:25.892Z,0.34
2023-05-25T07:30:25.655Z,0.34
2023-05-25T07:31:25.621Z,0.34
2023-05-25T07:32:25.580Z,0.34
2023-05-25T07:33:25.469Z,0.34
2023-05-25T07:34:27.831Z,0.34
2023-05-25T07:35:25.355Z,0.34
2023-05-25T07:36:33.835Z,0.34
2023-05-25T07:37:28.487Z,0.34
2023-05-25T07:38:25.205Z,0.34
2023-05-25T07:39:32.952Z,0.34
2023-05-25T07:40:29.725Z,0.34
2023-05-25T07:41:25.394Z,0.34
2023-05-25T07:42:25.416Z,0.34
2023-05-25T07:44:28.267Z,0.34
2023-05-25T07:45:27.435Z,0.34
2023-05-25T07:46:28.372Z,0.34
2023-05-25T07:47:24.705Z,0.34
2023-05-25T07:48:24.937Z,0.34
2023-05-25T07:49:27.807Z,0.34
2023-05-25T07:50:32.890Z,0.34
2023-05-25T07:51:28.481Z,0.34
2023-05-25T07:52:24.383Z,0.34
2023-05-25T07:53:24.412Z,0.34
2023-05-25T07:54:24.218Z,0.34
2023-05-25T07:55:24.188Z,0.34
2023-05-25T07:56:24.165Z,0.34
2023-05-25T07:57:24.068Z,0.34
2023-05-25T07:58:24.531Z,0.34
2023-05-25T08:00:23.989Z,0.34
2023-05-25T08:01:26.220Z,0.34
2023-05-25T08:02:23.780Z,0.34
2023-05-25T08:03:31.888Z,0.34
2023-05-25T08:04:23.469Z,0.34
2023-05-25T08:05:24.123Z,0.34
2023-05-25T08:06:23.294Z,0.34
2023-05-25T08:07:23.160Z,0.34
2023-05-25T08:08:23.507Z,0.34
2023-05-25T08:09:23.603Z,0.34
2023-05-25T08:10:22.865Z,0.34
2023-05-25T08:11:22.719Z,0.34
2023-05-25T08:12:38.566Z,0.34
2023-05-25T08:13:22.514Z,0.34
2023-05-25T08:14:22.417Z,0.34
2023-05-25T08:15:22.233Z,0.34
2023-05-25T08:16:22.146Z,0.34
2023-05-25T08:17:22.034Z,0.34
2023-05-25T08:18:21.903Z,0.34
2023-05-25T08:19:21.721Z,0.34
2023-05-25T08:20:21.596Z,0.34
2023-05-25T08:21:21.489Z,0.34
2023-05-25T08:22:21.220Z,0.34
2023-05-25T08:23:21.054Z,0.36
2023-05-25T08:24:21.430Z,0.53
2023-05-25T08:25:20.787Z,0.51
2023-05-25T08:26:34.857Z,0.48
2023-05-25T08:27:20.425Z,0.49
2023-05-25T08:28:20.635Z,0.45
2023-05-25T08:29:20.404Z,0.39
2023-05-25T08:30:19.953Z,0.34
2023-05-25T08:31:19.877Z,0.60
2023-05-25T08:32:19.629Z,41.18
2023-05-25T08:33:19.636Z,42.40
2023-05-25T08:34:19.453Z,21.74
2023-05-25T08:35:19.176Z,6.05
2023-05-25T08:36:19.043Z,2.18
2023-05-25T08:37:18.865Z,2.67
2023-05-25T08:38:18.917Z,1.65
2023-05-25T08:39:19.046Z,0.90
2023-05-25T08:40:19.015Z,2.32
2023-05-25T08:41:18.262Z,1.70
2023-05-25T08:42:18.096Z,0.82
2023-05-25T08:43:17.930Z,0.51
2023-05-25T08:44:17.919Z,0.49
2023-05-25T08:45:33.482Z,0.48
2023-05-25T08:46:17.549Z,0.49
2023-05-25T08:47:32.969Z,0.60
2023-05-25T08:48:31.417Z,0.49
2023-05-25T08:49:17.567Z,0.50
2023-05-25T08:50:24.293Z,0.51
2023-05-25T08:51:16.912Z,0.49
2023-05-25T08:52:16.557Z,0.49
2023-05-25T08:53:16.480Z,0.53
2023-05-25T08:54:16.297Z,0.63
2023-05-25T08:55:16.492Z,1.96
2023-05-25T08:56:16.396Z,1.13
2023-05-25T08:57:15.834Z,1.14
2023-05-25T08:58:15.676Z,0.77
2023-05-25T08:59:15.512Z,0.69
2023-05-25T09:00:15.360Z,0.54
2023-05-25T09:01:15.418Z,0.64
2023-05-25T09:02:15.578Z,0.72
2023-05-25T09:03:14.965Z,1.50
2023-05-25T09:04:14.817Z,3.72
2023-05-25T09:05:14.557Z,4.24
2023-05-25T09:06:14.392Z,5.64
2023-05-25T09:07:14.226Z,2.88
2023-05-25T09:08:14.050Z,2.36
2023-05-25T09:09:13.864Z,3.53
2023-05-25T09:10:13.714Z,6.09
2023-05-25T09:11:16.846Z,11.33
2023-05-25T09:12:13.582Z,11.42
2023-05-25T09:13:22.030Z,4.90
2023-05-25T09:14:13.031Z,3.87
2023-05-25T09:15:12.850Z,6.01
2023-05-25T09:16:12.808Z,7.81
2023-05-25T09:17:12.607Z,2.23
2023-05-25T09:18:13.284Z,1.57
2023-05-25T09:19:12.385Z,0.92
2023-05-25T09:20:12.078Z,0.68
2023-05-25T09:21:11.944Z,0.76
2023-05-25T09:22:15.572Z,1.87
2023-05-25T09:23:11.940Z,1.56
2023-05-25T09:24:11.468Z,0.90
2023-05-25T09:25:11.309Z,0.72
2023-05-25T09:26:14.680Z,0.56
2023-05-25T09:27:11.036Z,0.38
2023-05-25T09:28:25.453Z,0.35
2023-05-25T09:29:10.987Z,0.49
2023-05-25T09:30:10.510Z,0.80
2023-05-25T09:31:13.551Z,0.88
2023-05-25T09:32:13.421Z,0.93
2023-05-25T09:33:17.670Z,0.56
2023-05-25T09:34:13.073Z,0.67
2023-05-25T09:35:09.947Z,0.36
2023-05-25T09:36:09.589Z,0.43
2023-05-25T09:37:09.602Z,0.37
2023-05-25T09:38:09.370Z,0.34
2023-05-25T09:39:09.587Z,0.51
2023-05-25T09:40:12.497Z,1.03
2023-05-25T09:41:09.928Z,1.04
2023-05-25T09:43:08.604Z,0.83
2023-05-25T09:44:11.843Z,1.07
2023-05-25T09:45:08.351Z,0.75
2023-05-25T09:46:15.668Z,0.98
2023-05-25T09:47:08.508Z,1.02
2023-05-25T09:48:08.910Z,1.05
2023-05-25T09:49:08.817Z,1.10
2023-05-25T09:50:07.584Z,0.93
2023-05-25T09:51:07.510Z,1.04
2023-05-25T09:52:07.320Z,0.82
2023-05-25T09:53:07.206Z,1.37
2023-05-25T09:54:14.869Z,0.99
2023-05-25T09:55:06.862Z,0.81
2023-05-25T09:56:22.296Z,0.80
2023-05-25T09:57:06.550Z,0.83
2023-05-25T09:58:06.385Z,0.60
2023-05-25T09:59:06.578Z,1.00
2023-05-25T10:00:06.134Z,1.02
2023-05-25T10:01:06.067Z,0.81
2023-05-25T10:02:05.834Z,0.83
2023-05-25T10:03:06.052Z,1.06
2023-05-25T10:04:09.204Z,1.12
2023-05-25T10:05:05.501Z,1.02
2023-05-25T10:06:05.471Z,1.24
2023-05-25T10:07:05.067Z,1.30
2023-05-25T10:08:05.004Z,1.21
2023-05-25T10:09:04.736Z,0.94
2023-05-25T10:10:04.995Z,0.42
2023-05-25T10:11:05.492Z,2.13
2023-05-25T10:12:04.334Z,1.83
2023-05-25T10:13:04.243Z,2.62
2023-05-25T10:14:07.793Z,1.63
2023-05-25T10:15:03.909Z,0.81
2023-05-25T10:16:03.849Z,0.88
2023-05-25T10:17:03.607Z,0.70
2023-05-25T10:18:03.491Z,0.76
2023-05-25T10:19:03.505Z,0.39
2023-05-25T10:20:03.190Z,0.38
2023-05-25T10:21:04.163Z,0.56
2023-05-25T10:22:03.094Z,0.86
2023-05-25T10:23:02.982Z,1.03
2023-05-25T10:24:02.858Z,1.09
2023-05-25T10:25:03.024Z,0.88
2023-05-25T10:26:05.907Z,0.89
2023-05-25T10:27:10.963Z,0.67
2023-05-25T10:28:02.336Z,0.57
2023-05-25T10:29:10.209Z,0.98
2023-05-25T10:30:02.128Z,0.91
2023-05-25T10:31:02.071Z,1.05
2023-05-25T10:32:02.859Z,1.32
2023-05-25T10:33:01.708Z,1.55
2023-05-25T10:34:01.461Z,1.07
2023-05-25T10:35:01.335Z,0.42
2023-05-25T10:36:08.978Z,0.34
2023-05-25T10:37:01.033Z,0.34
2023-05-25T10:38:00.918Z,0.34
2023-05-25T10:39:00.974Z,0.34
2023-05-25T10:40:00.656Z,0.34
2023-05-25T10:41:00.997Z,0.57
2023-05-25T10:42:00.446Z,0.84
2023-05-25T10:43:00.262Z,0.73
2023-05-25T10:44:00.485Z,0.53
2023-05-25T10:44:59.973Z,0.62
2023-05-25T10:45:59.894Z,0.39
2023-05-25T10:46:59.724Z,0.48
2023-05-25T10:47:59.642Z,0.34
2023-05-25T10:48:59.506Z,0.34
2023-05-25T10:49:59.291Z,0.34
2023-05-25T10:50:59.535Z,0.34
2023-05-25T10:51:59.025Z,0.34
2023-05-25T10:52:58.878Z,0.34
2023-05-25T10:53:58.756Z,0.34
2023-05-25T10:54:58.967Z,0.34
2023-05-25T10:55:58.977Z,0.34
2023-05-25T10:56:58.368Z,0.34
2023-05-25T10:57:58.234Z,0.38
2023-05-25T10:58:58.112Z,0.56
2023-05-25T10:59:57.962Z,1.77
2023-05-25T11:00:58.020Z,1.33
2023-05-25T11:01:57.846Z,0.54
2023-05-25T11:02:57.643Z,0.48
2023-05-25T11:03:57.635Z,0.35
2023-05-25T11:04:57.409Z,0.34
2023-05-25T11:06:00.674Z,0.34
2023-05-25T11:06:57.222Z,0.35
2023-05-25T11:07:57.111Z,0.39
2023-05-25T11:08:57.077Z,0.84
2023-05-25T11:09:56.974Z,1.24
2023-05-25T11:10:56.797Z,1.02
2023-05-25T11:11:56.659Z,1.01
2023-05-25T11:12:57.536Z,0.98
2023-05-25T11:13:56.542Z,0.90
2023-05-25T11:14:56.283Z,0.64
2023-05-25T11:15:56.191Z,0.54
2023-05-25T11:16:56.076Z,0.58
2023-05-25T11:17:55.971Z,2.92
2023-05-25T11:18:55.970Z,1.89
2023-05-25T11:19:55.760Z,1.62
2023-05-25T11:20:55.626Z,2.16
2023-05-25T11:21:55.506Z,1.09
2023-05-25T11:22:55.508Z,0.59
2023-05-25T11:23:55.303Z,0.76
2023-05-25T11:24:55.149Z,1.95
2023-05-25T11:27:13.475Z,0.50
2023-05-25T11:28:14.146Z,0.50
2023-05-25T11:29:14.204Z,0.50
2023-05-25T11:30:14.163Z,0.50
2023-05-25T11:31:14.157Z,0.50
2023-05-25T11:32:14.357Z,0.76
2023-05-25T11:33:14.138Z,0.39
2023-05-25T11:34:14.352Z,0.34
2023-05-25T11:35:14.388Z,0.34
2023-05-25T11:36:14.152Z,0.34
2023-05-25T11:37:14.197Z,0.57
2023-05-25T11:38:14.176Z,0.34
2023-05-25T11:39:20.899Z,0.34
2023-05-25T11:40:15.389Z,0.34
2023-05-25T11:41:14.160Z,0.34
2023-05-25T11:42:14.160Z,0.34
2023-05-25T11:43:14.186Z,0.35
2023-05-25T11:44:14.745Z,0.42
2023-05-25T11:45:15.302Z,0.44
2023-05-25T11:46:14.256Z,0.82
2023-05-25T11:47:14.226Z,2.72
2023-05-25T11:48:14.294Z,3.98
2023-05-25T11:49:14.253Z,3.78
2023-05-25T11:50:14.262Z,2.35
2023-05-25T11:51:14.386Z,0.52
2023-05-25T11:52:14.348Z,0.34
2023-05-25T11:53:14.404Z,0.34
2023-05-25T11:54:14.497Z,0.83
2023-05-25T11:55:14.880Z,0.83
2023-05-25T11:56:27.097Z,0.48
2023-05-25T11:57:14.488Z,0.44
2023-05-25T11:58:14.469Z,0.53
2023-05-25T11:59:14.477Z,0.66
2023-05-25T12:00:14.495Z,0.79
2023-05-25T12:01:14.474Z,1.11
2023-05-25T12:02:14.473Z,0.62
2023-05-25T12:03:14.651Z,0.37
2023-05-25T12:04:14.945Z,0.37
2023-05-25T12:05:14.538Z,0.34
2023-05-25T12:06:14.501Z,0.34
2023-05-25T12:07:15.185Z,0.34
2023-05-25T12:08:14.515Z,0.34
2023-05-25T12:09:14.869Z,0.34
2023-05-25T12:10:15.384Z,0.34
2023-05-25T12:11:14.890Z,0.43
2023-05-25T12:12:14.428Z,0.76
2023-05-25T12:13:14.383Z,1.17
2023-05-25T12:14:14.361Z,4.04
2023-05-25T12:15:14.357Z,4.21
2023-05-25T12:16:14.362Z,8.51
2023-05-25T12:17:14.426Z,5.96
2023-05-25T12:18:14.384Z,4.94
2023-05-25T12:19:14.352Z,4.80
2023-05-25T12:20:14.349Z,2.60
2023-05-25T12:21:14.377Z,2.46
2023-05-25T12:22:14.351Z,2.68
2023-05-25T12:23:14.401Z,4.24
2023-05-25T12:24:14.882Z,8.32
2023-05-25T12:25:14.906Z,48.88
2023-05-25T12:26:15.358Z,19.52
2023-05-25T12:27:14.470Z,2.97
2023-05-25T12:28:14.948Z,4.75
2023-05-25T12:29:14.569Z,3.67
2023-05-25T12:30:14.608Z,2.64
2023-05-25T12:31:14.961Z,9.78
2023-05-25T12:32:14.645Z,8.91
2023-05-25T12:33:14.825Z,9.81
2023-05-25T12:34:14.695Z,7.72
2023-05-25T12:35:14.739Z,3.25
2023-05-25T12:36:14.797Z,2.62
2023-05-25T12:37:14.800Z,13.33
2023-05-25T12:38:14.818Z,6.50
2023-05-25T12:39:14.894Z,2.61
2023-05-25T12:40:15.375Z,1.10
2023-05-25T12:41:14.958Z,0.74
2023-05-25T12:42:14.959Z,1.74
2023-05-25T12:43:14.975Z,1.23
2023-05-25T12:44:14.985Z,2.15
2023-05-25T12:45:15.371Z,1.91
2023-05-25T12:46:15.088Z,1.10
2023-05-25T12:47:15.074Z,0.72
2023-05-25T12:48:15.173Z,0.61
2023-05-25T12:49:15.132Z,0.56
2023-05-25T12:50:15.188Z,1.78
2023-05-25T12:51:15.153Z,11.10
2023-05-25T12:52:15.192Z,28.66
2023-05-25T12:53:15.204Z,12.35
2023-05-25T12:54:15.418Z,3.61
2023-05-25T12:55:15.402Z,2.84
2023-05-25T12:56:15.288Z,1.83
2023-05-25T12:57:15.380Z,7.08
2023-05-25T12:58:15.269Z,15.64
2023-05-25T12:59:15.287Z,4.42
2023-05-25T13:00:15.389Z,2.12
2023-05-25T13:01:15.271Z,4.82
2023-05-25T13:02:15.343Z,2.69
2023-05-25T13:03:15.316Z,2.95
2023-05-25T13:04:15.345Z,4.34
2023-05-25T13:05:15.384Z,2.60
2023-05-25T13:06:15.347Z,0.59
2023-05-25T13:07:15.345Z,0.57
2023-05-25T13:08:15.405Z,0.49
2023-05-25T13:09:15.894Z,0.79
2023-05-25T13:10:15.603Z,0.69
2023-05-25T13:11:15.546Z,0.73
2023-05-25T13:12:16.376Z,0.49
2023-05-25T13:13:15.649Z,0.57
2023-05-25T13:14:15.710Z,0.71
2023-05-25T13:15:15.891Z,0.88
2023-05-25T13:16:15.871Z,2.28
2023-05-25T13:17:15.863Z,6.58
2023-05-25T13:18:15.903Z,5.55
2023-05-25T13:19:15.910Z,7.26
2023-05-25T13:20:16.499Z,2.70
2023-05-25T13:21:16.016Z,2.38
2023-05-25T13:22:16.058Z,0.81
2023-05-25T13:23:16.094Z,1.10
2023-05-25T13:24:16.136Z,1.87
2023-05-25T13:25:16.211Z,1.55
2023-05-25T13:26:16.248Z,2.90
2023-05-25T13:27:16.287Z,1.98
2023-05-25T13:28:16.394Z,1.40
2023-05-25T13:29:16.349Z,1.18
2023-05-25T13:30:16.388Z,0.62
2023-05-25T13:31:16.501Z,0.82
2023-05-25T13:32:16.502Z,1.67